Time;durP1;ratioP1;P1;durP2;ratioP2;P2;SDS_P1;SDS_P2;PMS_P1;PMS_P2;Temp;Humidity;BMP_temperature;BMP_pressure;BME280_temperature;BME280_humidity;BME280_pressure;Samples;Min_cycle;Max_cycle;Signal;HPM_P1;HPM_P2
2022/05/24 00:02:50;;;;;;;3.70;2.00;;;;;;;17.18;73.89;95263.94;10351361;28;20189;-76
2022/05/24 00:07:51;;;;;;;3.38;2.15;;;;;;;17.07;74.38;95276.16;10350607;28;20189;-75
2022/05/24 00:12:51;;;;;;;2.70;2.05;;;;;;;16.96;75.02;95277.78;10376226;28;20190;-75
2022/05/24 00:18:01;;;;;;;5.13;2.10;;;;;;;16.84;75.97;95287.53;10376296;28;20248;-75
2022/05/24 00:23:03;;;;;;;3.83;2.10;;;;;;;16.69;76.89;95294.09;10358462;28;20193;-75
2022/05/24 00:28:04;;;;;;;4.40;2.50;;;;;;;16.57;77.37;95294.09;10376196;28;20193;-75
2022/05/24 00:33:05;;;;;;;5.97;2.47;;;;;;;16.44;78.74;95289.00;10358424;28;20681;-74
2022/05/24 00:38:08;;;;;;;4.78;2.20;;;;;;;16.30;79.98;95299.00;10357725;28;20271;-74
2022/05/24 00:43:31;;;;;;;6.10;2.40;;;;;;;16.11;81.46;95294.81;10375448;28;20542;-74
2022/05/24 00:48:38;;;;;;;4.65;2.17;;;;;;;15.96;83.08;95288.13;10357800;28;20185;-74
2022/05/24 00:53:48;;;;;;;5.50;2.38;;;;;;;15.90;84.87;95288.22;10357620;28;20604;-74
2022/05/24 00:58:55;;;;;;;3.83;2.53;;;;;;;15.83;85.33;95288.31;10356915;28;20225;-74
2022/05/24 01:03:55;;;;;;;4.25;2.38;;;;;;;15.79;86.93;95289.78;10356694;28;20280;-74
2022/05/24 01:08:58;;;;;;;4.80;2.63;;;;;;;15.77;88.07;95284.72;10356565;28;20197;-74
2022/05/24 01:14:00;;;;;;;12.63;2.65;;;;;;;15.80;89.29;95288.75;10356872;28;20193;-74
2022/05/24 01:19:04;;;;;;;4.63;2.53;;;;;;;15.85;89.53;95294.97;10356388;28;20220;-74
2022/05/24 01:24:25;;;;;;;7.63;2.65;;;;;;;15.83;90.59;95299.69;10372808;28;20237;-74
2022/05/24 01:29:26;;;;;;;8.30;2.67;;;;;;;15.74;92.15;95294.91;10356240;28;20197;-74
2022/05/24 01:39:50;;;;;;;5.30;2.42;;;;;;;15.73;93.20;95301.19;10358092;28;20220;-74
2022/05/24 01:44:54;;;;;;;5.55;2.10;;;;;;;15.77;95.03;95302.38;10355755;28;20205;-74
2022/05/24 01:49:58;;;;;;;5.93;2.22;;;;;;;15.86;96.08;95303.69;10355164;28;20185;-74
2022/05/24 01:55:04;;;;;;;5.55;2.10;;;;;;;16.02;96.34;95304.91;10354722;28;20382;-74
2022/05/24 02:00:07;;;;;;;3.35;2.00;;;;;;;15.95;97.80;95302.34;10372439;28;20559;-74
2022/05/24 02:05:31;;;;;;;8.90;2.20;;;;;;;15.98;99.84;95314.31;10371999;28;20567;-74
2022/05/24 02:10:43;;;;;;;4.13;1.88;;;;;;;16.10;100.00;95312.50;10371942;28;20531;-75
2022/05/24 02:15:45;;;;;;;5.32;1.92;;;;;;;16.08;100.00;95316.41;10354463;28;20196;-74
2022/05/24 02:20:46;;;;;;;13.38;2.10;;;;;;;16.07;100.00;95322.72;10371616;28;20255;-74
2022/05/24 02:25:51;;;;;;;4.75;1.92;;;;;;;16.21;100.00;95324.13;10371379;28;20277;-74
2022/05/24 02:30:54;;;;;;;5.80;2.28;;;;;;;16.16;100.00;95330.09;10371218;28;20661;-74
2022/05/24 02:35:54;;;;;;;3.72;1.90;;;;;;;16.22;100.00;95331.03;10353170;28;20660;-74
2022/05/24 02:46:16;;;;;;;2.95;1.90;;;;;;;16.20;100.00;95320.69;10370399;28;20319;-74
2022/05/24 02:51:17;;;;;;;7.45;2.00;;;;;;;16.31;100.00;95313.81;10336492;28;20193;-75
2022/05/24 02:56:19;;;;;;;6.40;1.90;;;;;;;16.23;100.00;95316.78;10369950;28;20256;-74
2022/05/24 03:01:22;;;;;;;2.95;1.75;;;;;;;16.33;100.00;95314.41;10369789;28;20197;-75
2022/05/24 03:06:23;;;;;;;3.28;1.77;;;;;;;16.39;100.00;95329.34;10404670;28;20204;-74
2022/05/24 03:11:24;;;;;;;5.78;1.70;;;;;;;16.52;100.00;95333.63;10388704;28;20275;-74
2022/05/24 03:16:26;;;;;;;6.15;1.70;;;;;;;16.45;100.00;95346.16;10406898;28;20235;-74
2022/05/24 03:21:27;;;;;;;4.22;1.85;;;;;;;16.45;100.00;95350.59;10406142;28;20219;-74
2022/05/24 03:26:27;;;;;;;4.35;1.70;;;;;;;16.43;100.00;95347.41;10406794;28;20199;-75
2022/05/24 03:31:35;;;;;;;4.25;1.60;;;;;;;16.44;100.00;95349.81;10405972;28;20193;-75
2022/05/24 03:36:35;;;;;;;4.25;1.80;;;;;;;16.46;100.00;95349.59;10406109;28;20196;-74
2022/05/24 03:41:37;;;;;;;2.58;1.80;;;;;;;16.44;100.00;95346.38;10406030;28;20204;-75
2022/05/24 03:46:37;;;;;;;3.90;1.65;;;;;;;16.45;100.00;95348.78;10404709;28;20219;-74
2022/05/24 03:51:38;;;;;;;5.63;1.60;;;;;;;16.45;100.00;95348.78;10405691;28;20196;-74
2022/05/24 03:56:39;;;;;;;2.70;1.80;;;;;;;16.55;100.00;95359.63;10405034;28;20236;-75
2022/05/24 04:01:39;;;;;;;1.67;1.45;;;;;;;16.58;100.00;95358.34;10406003;28;20203;-74
2022/05/24 04:06:41;;;;;;;3.42;1.27;;;;;;;16.55;100.00;95362.25;10409150;28;20197;-74
2022/05/24 04:11:42;;;;;;;2.55;1.20;;;;;;;16.47;100.00;95372.34;10408715;28;20653;-75
2022/05/24 04:16:42;;;;;;;4.22;1.30;;;;;;;16.30;100.00;95391.50;10408301;28;20753;-74
2022/05/24 04:21:43;;;;;;;3.38;1.48;;;;;;;16.33;100.00;95393.69;10408584;28;20271;-74
2022/05/24 04:26:46;;;;;;;3.75;1.60;;;;;;;16.13;100.00;95401.09;10408850;28;20203;-74
2022/05/24 04:31:46;;;;;;;3.47;1.40;;;;;;;16.05;100.00;95404.84;10408628;28;20193;-74
2022/05/24 04:36:47;;;;;;;2.17;1.30;;;;;;;16.18;100.00;95417.88;10408799;28;20212;-74
2022/05/24 04:47:09;;;;;;;4.40;1.38;;;;;;;16.15;100.00;95423.59;10408555;28;20204;-75
2022/05/24 04:52:11;;;;;;;2.45;1.50;;;;;;;16.35;100.00;95418.03;10407969;28;20565;-74
2022/05/24 04:57:12;;;;;;;1.40;1.30;;;;;;;16.60;100.00;95430.31;10412711;28;20267;-74
2022/05/24 05:02:13;;;;;;;2.15;1.40;;;;;;;16.68;100.00;95421.25;10415788;28;20181;-75
2022/05/24 05:07:16;;;;;;;4.43;1.50;;;;;;;16.87;100.00;95427.28;10414927;28;20952;-75
2022/05/24 05:12:17;;;;;;;2.78;1.33;;;;;;;16.81;100.00;95436.09;10414986;28;20561;-75
2022/05/24 05:17:18;;;;;;;3.80;1.50;;;;;;;16.62;100.00;95438.81;10397656;28;20247;-75
2022/05/24 05:22:19;;;;;;;1.63;1.30;;;;;;;16.77;100.00;95425.97;10415198;28;20196;-75
2022/05/24 05:27:19;;;;;;;2.35;1.40;;;;;;;16.88;100.00;95427.06;10414939;28;20268;-74
2022/05/24 05:32:23;;;;;;;4.82;1.90;;;;;;;16.81;100.00;95436.91;10414753;28;20207;-74
2022/05/24 05:37:23;;;;;;;3.97;1.77;;;;;;;17.08;99.00;95434.66;10414160;28;20217;-75
2022/05/24 05:42:27;;;;;;;2.45;1.33;;;;;;;17.72;96.34;95428.66;10414689;28;20212;-74
2022/05/24 05:47:27;;;;;;;3.28;1.40;;;;;;;17.74;92.21;95418.63;10414204;28;20191;-75
2022/05/24 05:52:27;;;;;;;2.90;1.85;;;;;;;17.29;92.77;95424.56;10413903;28;20208;-75
2022/05/24 05:57:28;;;;;;;3.50;1.40;;;;;;;17.26;92.06;95433.78;10413192;28;20327;-74
2022/05/24 06:02:28;;;;;;;2.85;1.48;;;;;;;17.73;89.90;95438.19;10413558;28;20216;-75
2022/05/24 06:07:29;;;;;;;3.58;1.40;;;;;;;18.07;87.85;95437.59;10412905;28;20833;-75
2022/05/24 06:12:44;;;;;;;2.42;1.60;;;;;;;18.38;84.36;95432.84;10416810;28;20533;-74
2022/05/24 06:17:48;;;;;;;5.47;1.48;;;;;;;18.49;83.19;95429.38;10424034;28;20246;-74
2022/05/24 06:22:57;;;;;;;4.43;1.48;;;;;;;18.58;82.05;95432.44;10430458;28;20208;-74
2022/05/24 06:27:58;;;;;;;4.10;1.25;;;;;;;18.40;84.21;95446.69;10432929;28;20625;-74
2022/05/24 06:32:59;;;;;;;12.70;1.65;;;;;;;18.63;80.37;95440.47;10447241;28;20198;-74
2022/05/24 06:37:59;;;;;;;3.70;1.50;;;;;;;18.50;81.09;95460.94;10453579;28;20228;-74
2022/05/24 06:43:00;;;;;;;4.57;1.30;;;;;;;18.38;80.02;95459.38;10453180;28;20676;-75
2022/05/24 06:48:00;;;;;;;1.73;1.60;;;;;;;18.51;80.19;95453.78;10435498;28;20673;-75
2022/05/24 06:53:01;;;;;;;3.60;1.63;;;;;;;18.10;83.36;95495.41;10452863;28;21013;-75
2022/05/24 06:58:01;;;;;;;4.65;1.95;;;;;;;18.32;83.14;95490.31;10413753;28;20690;-75
2022/05/24 07:03:04;;;;;;;2.92;1.35;;;;;;;18.96;81.01;95486.69;10411475;28;20742;-75
2022/05/24 07:08:05;;;;;;;2.35;1.42;;;;;;;19.04;78.82;95473.84;10408222;28;20189;-75
2022/05/24 07:13:16;;;;;;;3.15;1.40;;;;;;;19.33;77.66;95480.94;10408544;28;20928;-75
2022/05/24 07:18:16;;;;;;;3.28;1.70;;;;;;;19.10;76.82;95482.69;10408156;28;20224;-76
2022/05/24 07:23:19;;;;;;;4.53;1.38;;;;;;;19.45;77.63;95481.66;10408261;28;20203;-75
2022/05/24 07:28:20;;;;;;;1.73;1.40;;;;;;;20.59;71.74;95418.19;10415288;28;20182;-75
2022/05/24 07:33:20;;;;;;;2.25;1.10;;;;;;;20.98;71.88;95442.00;10444949;28;20261;-76
2022/05/24 07:38:21;;;;;;;2.47;1.05;;;;;;;21.10;69.94;95425.03;10432194;28;20327;-77
2022/05/24 07:48:42;;;;;;;3.28;1.20;;;;;;;20.14;73.29;95469.84;10448356;28;20200;-76
2022/05/24 07:53:43;;;;;;;3.72;1.38;;;;;;;19.93;73.60;95482.06;10412660;28;1000359;-76
2022/05/24 07:58:43;;;;;;;2.35;1.90;;;;;;;19.59;74.60;95496.19;10423658;28;20251;-75
2022/05/24 08:03:44;;;;;;;2.05;1.40;;;;;;;19.98;72.46;95468.03;10407398;28;20196;-76
2022/05/24 08:08:44;;;;;;;3.67;1.20;;;;;;;19.43;77.46;95531.53;10404885;28;20242;-76
2022/05/24 08:13:45;;;;;;;3.40;1.10;;;;;;;19.22;77.62;95527.78;10406043;28;20629;-74
2022/05/24 08:18:45;;;;;;;3.65;1.38;;;;;;;19.31;77.33;95521.00;10405357;28;20220;-73
2022/05/24 08:23:46;;;;;;;5.22;1.80;;;;;;;19.89;74.34;95496.91;10405769;28;20188;-75
2022/05/24 08:28:47;;;;;;;2.20;1.45;;;;;;;19.40;77.45;95543.47;10412988;28;20197;-75
2022/05/24 08:33:49;;;;;;;3.70;1.80;;;;;;;18.75;80.74;95570.44;10413276;28;20196;-75
2022/05/24 08:38:49;;;;;;;4.10;1.40;;;;;;;19.00;80.09;95559.50;10412768;28;20659;-75
2022/05/24 08:48:22;;;;;;;2.95;1.33;;;;;;;19.11;78.44;95557.81;10412178;28;20200;-75
2022/05/24 08:49:22;;;;;;;4.68;1.60;;;;;;;19.82;76.06;95525.53;10396313;28;20236;-77
2022/05/24 08:54:30;;;;;;;2.72;1.60;;;;;;;19.91;77.08;95540.78;10396883;28;20701;-76
2022/05/24 08:59:34;;;;;;;3.47;1.52;;;;;;;21.92;68.99;95466.34;10396739;28;20250;-76
2022/05/24 09:04:35;;;;;;;2.95;1.48;;;;;;;22.98;65.04;95433.28;10413122;28;20201;-76
2022/05/24 09:09:45;;;;;;;1.80;1.35;;;;;;;21.83;66.88;95483.09;10413779;28;20189;-76
2022/05/24 09:15:06;;;;;;;6.38;1.70;;;;;;;21.20;68.82;95499.69;10412471;28;20193;-75
2022/05/24 09:20:31;;;;;;;2.75;1.42;;;;;;;21.30;67.33;95485.63;10412170;28;20251;-75
2022/05/24 09:25:32;;;;;;;4.65;1.23;;;;;;;21.96;67.25;95484.47;10411829;28;20295;-75
2022/05/24 09:30:40;;;;;;;5.18;1.20;;;;;;;22.38;65.74;95473.75;10412567;28;20549;-75
2022/05/24 09:35:41;;;;;;;4.07;1.60;;;;;;;21.34;69.83;95548.81;10412508;28;20235;-76
2022/05/24 09:40:49;;;;;;;9.75;1.90;;;;;;;19.67;83.09;95629.69;10410873;28;20216;-76
2022/05/24 09:45:58;;;;;;;2.10;1.77;;;;;;;19.68;98.26;95618.00;10411480;28;20223;-77
2022/05/24 09:51:00;;;;;;;3.38;1.67;;;;;;;20.54;91.57;95615.03;10408661;28;20181;-75
2022/05/24 09:56:19;;;;;;;2.85;1.80;;;;;;;20.11;82.57;95596.09;10421326;28;20233;-77
2022/05/24 10:01:35;;;;;;;2.45;1.85;;;;;;;20.95;79.42;95594.25;10453508;28;20232;-77
2022/05/24 10:06:36;;;;;;;2.83;1.88;;;;;;;21.34;76.20;95593.28;10430483;28;20227;-77
2022/05/24 10:11:53;;;;;;;3.85;1.67;;;;;;;21.38;74.31;95595.19;10396251;28;20833;-74
2022/05/24 10:17:06;;;;;;;7.00;1.90;;;;;;;21.83;72.00;95568.41;10409417;28;20654;-75
2022/05/24 10:22:24;;;;;;;2.60;1.50;;;;;;;21.47;73.24;95565.41;10428987;28;20757;-75
2022/05/24 10:27:49;;;;;;;3.47;1.83;;;;;;;20.35;72.94;95565.81;10453314;28;20187;-74
2022/05/24 10:38:44;;;;;;;2.90;1.50;;;;;;;20.59;75.52;95615.09;10395552;28;20212;-74
2022/05/24 10:43:55;;;;;;;4.60;1.63;;;;;;;20.92;73.84;95588.59;10410817;28;20714;-74
2022/05/24 10:49:08;;;;;;;3.15;1.75;;;;;;;21.45;70.96;95576.34;10413160;28;20208;-74
2022/05/24 10:54:40;;;;;;;2.58;1.52;;;;;;;21.06;72.31;95587.19;10391794;28;20242;-74
2022/05/24 11:00:03;;;;;;;2.75;1.55;;;;;;;23.04;64.09;95509.66;10391974;28;20221;-75
2022/05/24 11:05:09;;;;;;;2.28;1.33;;;;;;;21.35;67.66;95561.06;10416962;28;20224;-74
2022/05/24 11:10:20;;;;;;;3.15;1.40;;;;;;;22.28;66.33;95548.38;10429225;28;20187;-75
2022/05/24 11:15:32;;;;;;;2.95;1.38;;;;;;;21.02;66.34;95552.22;10431950;28;20863;-74
2022/05/24 11:21:08;;;;;;;6.53;1.40;;;;;;;21.16;65.86;95551.84;10405142;28;20224;-75
2022/05/24 11:26:11;;;;;;;4.28;1.42;;;;;;;20.27;65.64;95549.22;10447307;28;20568;-76
2022/05/24 11:31:38;;;;;;;5.93;1.55;;;;;;;19.84;67.63;95581.88;10449433;28;20245;-75
2022/05/24 11:36:42;;;;;;;2.28;1.17;;;;;;;19.92;66.78;95561.03;10428370;28;20253;-75
2022/05/24 11:41:43;;;;;;;3.85;1.40;;;;;;;19.78;67.34;95575.69;10408547;28;20660;-75
2022/05/24 11:46:46;;;;;;;5.50;1.23;;;;;;;19.95;66.10;95560.53;10390627;28;20188;-74
2022/05/24 11:51:48;;;;;;;5.43;1.40;;;;;;;19.72;67.21;95571.31;10390492;28;20205;-75
2022/05/24 11:57:00;;;;;;;2.40;1.20;;;;;;;19.25;68.02;95585.72;10389960;28;20233;-75
2022/05/24 12:08:07;;;;;;;2.30;1.23;;;;;;;19.19;66.73;95591.97;10383977;28;20688;-75
2022/05/24 12:13:23;;;;;;;2.17;1.30;;;;;;;19.41;65.86;95581.44;10389291;28;20196;-76
2022/05/24 12:18:36;;;;;;;5.13;1.17;;;;;;;19.49;67.00;95617.44;10407621;28;20635;-75
2022/05/24 12:23:40;;;;;;;3.00;1.30;;;;;;;19.74;66.97;95617.03;10407727;28;20193;-73
2022/05/24 12:28:58;;;;;;;1.48;1.08;;;;;;;19.58;67.48;95622.09;10412369;28;20914;-74
2022/05/24 12:34:09;;;;;;;7.78;1.45;;;;;;;19.34;66.07;95602.03;10432205;28;20184;-74
2022/05/24 12:39:13;;;;;;;5.05;1.38;;;;;;;19.17;66.31;95600.19;10410244;28;20302;-74
2022/05/24 12:44:24;;;;;;;5.82;1.48;;;;;;;19.21;66.59;95617.22;10447951;28;20206;-76
2022/05/24 12:49:27;;;;;;;5.18;1.60;;;;;;;18.98;65.82;95612.81;10348497;28;20193;-75
2022/05/24 12:54:33;;;;;;;6.30;1.10;;;;;;;19.15;67.47;95649.22;10366328;28;20229;-75
2022/05/24 12:59:37;;;;;;;2.45;1.10;;;;;;;18.70;64.94;95610.94;10385685;28;20221;-75
2022/05/24 13:04:38;;;;;;;2.42;1.00;;;;;;;18.54;64.77;95607.16;10389070;28;20189;-76
2022/05/24 13:15:46;;;;;;;2.03;1.00;;;;;;;19.06;63.89;95608.97;10390060;28;20200;-76
2022/05/24 13:21:00;;;;;;;1.10;0.93;;;;;;;19.25;64.35;95622.88;10413283;28;20311;-76
2022/05/24 13:26:01;;;;;;;3.53;0.90;;;;;;;19.89;63.33;95621.81;10395215;28;20195;-74
2022/05/24 13:36:49;;;;;;;1.88;0.90;;;;;;;19.39;63.47;95612.75;10397828;28;20197;-76
2022/05/24 13:42:03;;;;;;;2.83;1.10;;;;;;;19.68;62.46;95608.19;10395021;28;20198;-74
2022/05/24 13:47:24;;;;;;;6.45;1.33;;;;;;;19.66;63.39;95628.06;10450829;28;20223;-74
2022/05/24 13:52:30;;;;;;;3.85;1.35;;;;;;;19.55;63.98;95641.19;10426788;28;20564;-75
2022/05/24 13:57:31;;;;;;;0.85;0.73;;;;;;;20.36;62.65;95656.03;10430449;28;20268;-74
2022/05/24 14:02:32;;;;;;;1.08;0.75;;;;;;;21.80;58.72;95600.91;10411325;28;20704;-74
2022/05/24 14:07:32;;;;;;;3.63;0.95;;;;;;;23.44;53.36;95510.00;10412681;28;20222;-73
2022/05/24 14:12:32;;;;;;;0.88;0.77;;;;;;;23.11;54.20;95525.50;10429364;28;20250;-74
2022/05/24 14:17:33;;;;;;;2.05;0.65;;;;;;;25.83;48.32;95453.88;10426177;28;20214;-75
2022/05/24 14:22:34;;;;;;;1.60;0.77;;;;;;;25.76;48.22;95456.91;10395012;28;20287;-75
2022/05/24 14:27:36;;;;;;;2.83;0.93;;;;;;;22.34;55.23;95558.06;10410070;28;20446;-73
2022/05/24 14:32:38;;;;;;;1.48;0.80;;;;;;;21.83;56.27;95573.75;10410944;28;20203;-74
2022/05/24 14:37:38;;;;;;;1.77;1.00;;;;;;;20.85;59.13;95615.44;10410738;28;20221;-74
2022/05/24 14:42:42;;;;;;;1.02;0.77;;;;;;;21.62;57.37;95594.88;10410756;28;20189;-75
2022/05/24 14:47:42;;;;;;;2.00;0.88;;;;;;;20.47;60.52;95664.94;10409537;28;20304;-75
2022/05/24 14:52:43;;;;;;;0.95;0.70;;;;;;;20.14;60.04;95646.13;10409645;28;20192;-74
2022/05/24 14:57:43;;;;;;;0.55;0.50;;;;;;;20.40;57.54;95595.13;10355371;28;20239;-73
2022/05/24 15:02:44;;;;;;;5.57;0.70;;;;;;;21.54;55.57;95584.72;10419435;28;20193;-75
2022/05/24 15:18:32;;;;;;;2.70;0.50;;;;;;;24.24;51.19;95560.16;10422213;28;20247;-74
2022/05/24 15:23:33;;;;;;;1.60;0.38;;;;;;;26.11;45.11;95460.31;10411524;28;20201;-74
2022/05/24 15:28:37;;;;;;;0.93;0.40;;;;;;;25.09;47.28;95496.88;10407677;28;20212;-74
2022/05/24 15:33:38;;;;;;;3.33;0.55;;;;;;;24.20;50.05;95543.06;10406946;28;20188;-75
2022/05/24 15:38:38;;;;;;;0.60;0.40;;;;;;;26.11;45.04;95464.84;10414484;28;20226;-74
2022/05/24 15:43:43;;;;;;;3.17;0.40;;;;;;;27.45;41.98;95419.97;10407233;28;20259;-75
2022/05/24 15:48:44;;;;;;;0.90;0.50;;;;;;;27.66;44.63;95518.06;10407084;28;20195;-75
2022/05/24 15:53:44;;;;;;;3.65;0.60;;;;;;;25.07;49.43;95576.75;10407539;28;20252;-74
2022/05/24 15:58:44;;;;;;;1.05;0.50;;;;;;;23.14;54.21;95645.19;10407235;28;20303;-75
2022/05/24 16:03:46;;;;;;;2.67;0.50;;;;;;;23.19;56.43;95711.19;10406381;28;20185;-75
2022/05/24 16:14:12;;;;;;;1.80;0.50;;;;;;;22.38;56.74;95697.13;10398288;28;20193;-75
2022/05/24 16:19:12;;;;;;;1.13;0.68;;;;;;;23.03;55.26;95679.03;10426828;28;20255;-74
2022/05/24 16:24:13;;;;;;;2.33;0.50;;;;;;;22.73;56.72;95707.19;10409542;28;20283;-75
2022/05/24 16:29:13;;;;;;;0.52;0.50;;;;;;;22.02;57.98;95726.97;10412712;28;20180;-74
2022/05/24 16:34:14;;;;;;;0.60;0.60;;;;;;;20.93;61.06;95766.75;10415354;28;20661;-74
2022/05/24 16:39:16;;;;;;;4.60;0.50;;;;;;;20.30;62.71;95776.69;10405595;28;20212;-73
2022/05/24 16:44:16;;;;;;;0.90;0.60;;;;;;;19.96;63.47;95793.41;10410839;28;20219;-74
2022/05/24 16:49:16;;;;;;;0.60;0.60;;;;;;;19.13;67.03;95831.88;10416408;28;20254;-74
2022/05/24 16:59:36;;;;;;;6.55;0.85;;;;;;;20.02;64.45;95799.63;10415855;28;20216;-73
2022/05/24 17:04:37;;;;;;;1.75;0.70;;;;;;;20.33;63.07;95781.53;10425600;28;20207;-74
2022/05/24 17:09:38;;;;;;;2.08;0.60;;;;;;;20.17;61.88;95767.19;10415730;28;20189;-74
2022/05/24 17:14:39;;;;;;;0.93;0.60;;;;;;;20.22;62.84;95783.22;10432615;28;20199;-74
2022/05/24 17:19:39;;;;;;;0.70;0.70;;;;;;;20.33;63.15;95799.34;10443056;28;20815;-74
2022/05/24 17:24:39;;;;;;;0.73;0.68;;;;;;;20.08;64.75;95843.06;10412563;28;20641;-72
2022/05/24 17:29:40;;;;;;;2.38;0.60;;;;;;;20.23;64.42;95843.34;10447523;28;20670;-74
2022/05/24 17:34:40;;;;;;;0.98;0.75;;;;;;;19.86;66.72;95886.28;10435821;28;20716;-74
2022/05/24 17:39:41;;;;;;;0.73;0.73;;;;;;;19.98;65.72;95870.25;10433236;28;20733;-75
2022/05/24 17:44:42;;;;;;;2.83;0.70;;;;;;;19.48;67.25;95908.84;10432230;28;20235;-75
2022/05/24 17:49:45;;;;;;;1.92;0.70;;;;;;;19.01;68.15;95924.75;10440830;28;20233;-75
2022/05/24 17:54:46;;;;;;;2.00;0.80;;;;;;;18.90;67.82;95915.75;10455664;28;20726;-73
2022/05/24 18:00:36;;;;;;;0.70;0.70;;;;;;;18.62;69.19;95937.56;10404787;28;20228;-76
2022/05/24 18:05:37;;;;;;;1.13;0.68;;;;;;;18.31;70.87;95958.00;10351709;28;20673;-75
2022/05/24 18:10:39;;;;;;;2.97;0.70;;;;;;;17.65;72.08;95958.50;10415686;28;20727;-75
2022/05/24 18:15:39;;;;;;;4.50;0.80;;;;;;;17.64;73.54;95974.63;10431390;28;20264;-75
2022/05/24 18:20:45;;;;;;;1.27;0.80;;;;;;;16.68;78.47;95988.00;10432638;28;20217;-75
2022/05/24 18:36:34;;;;;;;0.80;0.80;;;;;;;15.96;86.69;95987.31;10450887;28;20223;-75
2022/05/24 18:41:34;;;;;;;0.63;0.60;;;;;;;15.51;92.55;95987.97;10453676;28;20244;-74
2022/05/24 18:46:34;;;;;;;0.70;0.70;;;;;;;15.50;92.85;96000.38;10450599;28;20611;-76
2022/05/24 18:51:35;;;;;;;6.00;0.80;;;;;;;15.22;97.51;96024.34;10438147;28;20184;-76
2022/05/24 18:56:36;;;;;;;3.50;0.90;;;;;;;15.24;98.59;96032.06;10453774;28;20323;-76
2022/05/24 19:01:38;;;;;;;0.93;0.80;;;;;;;14.95;100.00;96032.22;10438497;28;20648;-75
2022/05/24 19:06:38;;;;;;;1.17;0.68;;;;;;;15.07;95.50;96034.25;10442063;28;20192;-76
2022/05/24 19:11:39;;;;;;;2.75;0.80;;;;;;;14.77;94.73;96045.19;10415070;28;20556;-75
2022/05/24 19:16:39;;;;;;;0.77;0.57;;;;;;;14.86;94.18;96051.09;10426599;28;20283;-75
2022/05/24 19:21:39;;;;;;;0.60;0.60;;;;;;;14.92;93.48;96051.09;10409281;28;20242;-76
2022/05/24 19:26:40;;;;;;;5.80;0.90;;;;;;;14.74;92.95;96072.75;10410956;28;20196;-76
2022/05/24 19:31:40;;;;;;;1.17;0.65;;;;;;;14.77;97.05;96079.47;10410117;28;20280;-75
2022/05/24 19:36:41;;;;;;;4.53;0.90;;;;;;;14.39;100.00;96085.16;10410639;28;20200;-76
2022/05/24 19:41:41;;;;;;;14.20;8.85;;;;;;;14.02;100.00;96080.09;10410557;28;20359;-76
2022/05/24 19:46:43;;;;;;;4.32;3.92;;;;;;;13.79;100.00;96085.63;10407497;28;20235;-76
2022/05/24 19:51:49;;;;;;;4.50;1.67;;;;;;;14.08;100.00;96107.50;10430274;28;20183;-75
2022/05/24 19:56:53;;;;;;;4.30;1.40;;;;;;;14.01;100.00;96111.91;10426582;28;20628;-75
2022/05/24 20:01:53;;;;;;;4.38;1.13;;;;;;;13.79;100.00;96125.13;10417147;28;20226;-75
2022/05/24 20:06:54;;;;;;;3.13;0.90;;;;;;;13.43;100.00;96125.22;10432349;28;20255;-75
2022/05/24 20:11:54;;;;;;;0.80;0.80;;;;;;;13.51;100.00;96131.19;10410654;28;20180;-76
2022/05/24 20:16:54;;;;;;;0.80;0.80;;;;;;;13.69;100.00;96130.72;10430479;28;20286;-76
2022/05/24 20:21:59;;;;;;;1.55;0.80;;;;;;;13.58;100.00;96140.94;10429928;28;20218;-75
2022/05/24 20:27:01;;;;;;;3.88;1.13;;;;;;;13.55;100.00;96135.06;10430879;28;20184;-75
2022/05/24 20:32:01;;;;;;;1.48;1.10;;;;;;;13.36;100.00;96148.84;10435640;28;20196;-76
2022/05/24 20:37:02;;;;;;;1.38;1.00;;;;;;;13.05;100.00;96168.34;10423930;28;20200;-76
2022/05/24 20:42:05;;;;;;;1.42;0.90;;;;;;;13.07;100.00;96170.78;10417226;28;20184;-76
2022/05/24 20:47:07;;;;;;;2.10;1.02;;;;;;;12.96;100.00;96170.25;10399589;28;20199;-76
2022/05/24 20:52:09;;;;;;;3.38;1.00;;;;;;;12.75;100.00;96176.25;10399372;28;20185;-75
2022/05/24 20:57:09;;;;;;;2.60;0.95;;;;;;;12.79;100.00;96184.63;10416468;28;20267;-75
2022/05/24 21:02:09;;;;;;;0.90;0.90;;;;;;;12.89;100.00;96186.94;10416450;28;20285;-75
2022/05/24 21:07:10;;;;;;;1.48;1.17;;;;;;;12.88;100.00;96187.94;10398788;28;20192;-76
2022/05/24 21:12:12;;;;;;;2.65;1.05;;;;;;;12.95;100.00;96181.75;10415820;28;20189;-76
2022/05/24 21:17:13;;;;;;;2.88;1.40;;;;;;;13.00;100.00;96170.69;10416066;28;20644;-75
2022/05/24 21:22:13;;;;;;;1.13;1.10;;;;;;;12.80;100.00;96170.47;10415689;28;20306;-76
2022/05/24 21:37:53;;;;;;;1.42;1.00;;;;;;;12.49;100.00;96182.00;10415033;28;20248;-76
2022/05/24 21:42:54;;;;;;;5.28;1.23;;;;;;;12.36;100.00;96184.44;10397616;28;20243;-76
2022/05/24 21:47:55;;;;;;;1.67;1.20;;;;;;;12.37;100.00;96181.63;10415195;28;20176;-76
2022/05/24 21:52:55;;;;;;;1.48;1.05;;;;;;;12.43;100.00;96190.59;10414667;28;20267;-77
2022/05/24 21:57:55;;;;;;;3.97;1.25;;;;;;;12.47;100.00;96203.19;10397087;28;20220;-77
2022/05/24 22:02:56;;;;;;;1.42;1.10;;;;;;;12.51;100.00;96213.34;10396527;28;20192;-76
2022/05/24 22:07:56;;;;;;;0.95;0.90;;;;;;;12.37;100.00;96226.28;10413991;28;20267;-75
2022/05/24 22:12:56;;;;;;;1.20;1.10;;;;;;;12.28;100.00;96246.56;10395823;28;20199;-76
2022/05/24 22:17:59;;;;;;;1.52;1.42;;;;;;;12.28;100.00;96248.38;10396035;28;20216;-76
2022/05/24 22:23:00;;;;;;;3.22;1.00;;;;;;;12.42;100.00;96252.84;10413001;28;20250;-75
2022/05/24 22:28:01;;;;;;;1.20;1.10;;;;;;;12.32;100.00;96262.78;10413539;28;20188;-76
2022/05/24 22:33:01;;;;;;;4.78;1.48;;;;;;;12.35;100.00;96259.00;10413101;28;20211;-76
2022/05/24 22:38:02;;;;;;;1.23;1.10;;;;;;;12.29;100.00;96265.78;10412319;28;20262;-76
2022/05/24 22:43:03;;;;;;;1.77;1.35;;;;;;;12.26;100.00;96239.88;10412747;28;20200;-76
2022/05/24 22:48:03;;;;;;;4.03;1.20;;;;;;;11.86;100.00;96231.31;10411812;28;20657;-76
2022/05/24 22:53:05;;;;;;;1.95;1.10;;;;;;;11.72;100.00;96219.78;10412447;28;20219;-76
2022/05/24 22:58:05;;;;;;;1.20;1.13;;;;;;;11.37;100.00;96217.56;10412432;28;20307;-76
2022/05/24 23:03:06;;;;;;;1.20;1.10;;;;;;;11.17;100.00;96230.28;10414545;28;20279;-76
2022/05/24 23:08:06;;;;;;;3.00;1.30;;;;;;;11.06;100.00;96231.50;10397176;28;20184;-76
2022/05/24 23:13:06;;;;;;;1.20;1.10;;;;;;;10.86;100.00;96236.34;10412793;28;20180;-76
2022/05/24 23:18:07;;;;;;;1.40;1.30;;;;;;;10.67;100.00;96239.34;10411447;28;20228;-76
2022/05/24 23:23:07;;;;;;;1.17;1.13;;;;;;;10.49;100.00;96248.25;10410413;28;20180;-76
2022/05/24 23:28:08;;;;;;;1.37;1.27;;;;;;;10.32;100.00;96247.44;10409396;28;20254;-76
2022/05/24 23:33:08;;;;;;;2.57;1.37;;;;;;;10.41;100.00;96252.66;10410433;28;20691;-76
2022/05/24 23:38:09;;;;;;;1.27;1.20;;;;;;;10.38;100.00;96250.38;10409515;28;20291;-76
2022/05/24 23:43:09;;;;;;;1.40;1.30;;;;;;;10.23;100.00;96258.06;10410192;28;20201;-76
2022/05/24 23:48:09;;;;;;;1.30;1.20;;;;;;;10.22;100.00;96241.53;10409716;28;20219;-75
2022/05/24 23:53:10;;;;;;;6.93;2.20;;;;;;;10.12;100.00;96246.13;10409652;28;20240;-76
2022/05/24 23:58:10;;;;;;;1.40;1.30;;;;;;;10.29;100.00;96260.84;10409242;28;20235;-76
